El Paso, TX (88557)

5:05 AM MDT on July 26, 2016 (GMT -0600)
Montwood and Wedgewood | | Change Station

Elev 3957 ft 31.77 °N, 106.35 °W | Updated 1 minute ago

Scattered Clouds
Scattered Clouds
77.3 °F
Feels Like 79 °F
N
10.0
Wind Variable Wind from East
Gusts 17.0 mph

Today
High -- | Low -- °F
--% Chance of Precip.
Yesterday
High -- | Low -- °F
Precip. -- in
Pressure 29.86 in
Visibility 10.0 miles
Clouds Few 4800 ft
Scattered Clouds 11000 ft
Scattered Clouds 25000 ft
Heat Index 79 °F
Dew Point 58 °F
Humidity 52%
Rainfall 0.00 in
Snow Depth Not available.
6:17 AM 8:05 PM
Waning Gibbous, 56% visible
METAR KELP 261051Z 01015KT 10SM FEW048 SCT110 SCT250 26/15 A3011 RMK AO2 PK WND 03026/0954 SLP111 CB DSNT NW-N MOV SW T02560150
Pressure 29.86 in
Visibility 10.0 miles
Clouds Few 4800 ft
Scattered Clouds 11000 ft
Scattered Clouds 25000 ft
Heat Index 79 °F
Dew Point 58 °F
Humidity 52%
Rainfall 0.00 in
Snow Depth Not available.
6:17 AM 8:05 PM
Waning Gibbous, 56% visible
METAR KELP 261051Z 01015KT 10SM FEW048 SCT110 SCT250 26/15 A3011 RMK AO2 PK WND 03026/0954 SLP111 CB DSNT NW-N MOV SW T02560150

10-Day Weather Forecast

Almanac

Astronomy

Jul. 26, 2016 Rise Set
Actual Time
Civil Twilight
Nautical Twilight
Astronomical Twilight
Moon
Length of Visible Light
Length of Day
Tomorrow will be .
, % of the Moon is Illuminated

Today's Extremes

State Highs State Lows

Community

WunderPhotos

Upload Photos

1,927,571 photos uploaded!

WunderBlog® & News

Nearby

Air Quality

  Air Quality AQ Index Pollutant
Not available.

Snow Depth

Station Depth Elevation

Earthquake Activity

City Distance Mag. Time & Date
Minimum magnitude displayed is 2.5.

Coastal Water Temperatures

Place Temperature

Stations

Nearby Weather Stations

Station Location Temp. Windchill Dew Point Humidity Wind Precip. Elev Updated Type
                   

Watches & Warnings

There are currently no watches in effect.